sensor_id;sensor_type;location;lat;lon;timestamp;P1;durP1;ratioP1;P2;durP2;ratioP2
19810;SDS011;10065;49.632;8.346;2023-08-01T01:36:54;11.43;;;4.40;;
19810;SDS011;10065;49.632;8.346;2023-08-01T06:31:52;8.23;;;3.90;;
19810;SDS011;10065;49.632;8.346;2023-08-01T06:34:37;5.47;;;3.47;;
19810;SDS011;10065;49.632;8.346;2023-08-01T06:37:05;6.47;;;3.23;;
19810;SDS011;10065;49.632;8.346;2023-08-01T06:39:41;6.97;;;2.97;;
19810;SDS011;10065;49.632;8.346;2023-08-01T06:42:19;4.97;;;2.70;;
19810;SDS011;10065;49.632;8.346;2023-08-01T06:44:47;6.20;;;3.27;;
19810;SDS011;10065;49.632;8.346;2023-08-01T06:47:39;6.00;;;2.77;;
19810;SDS011;10065;49.632;8.346;2023-08-01T06:50:09;4.07;;;2.63;;
19810;SDS011;10065;49.632;8.346;2023-08-01T06:52:55;5.73;;;2.87;;
19810;SDS011;10065;49.632;8.346;2023-08-01T06:55:37;9.10;;;3.10;;
19810;SDS011;10065;49.632;8.346;2023-08-01T06:58:05;5.90;;;3.27;;
19810;SDS011;10065;49.632;8.346;2023-08-01T07:00:34;9.93;;;3.20;;
19810;SDS011;10065;49.632;8.346;2023-08-01T07:03:09;5.93;;;3.10;;
19810;SDS011;10065;49.632;8.346;2023-08-01T07:05:37;5.33;;;3.00;;
19810;SDS011;10065;49.632;8.346;2023-08-01T07:08:05;5.17;;;2.90;;
19810;SDS011;10065;49.632;8.346;2023-08-01T07:10:34;4.97;;;2.80;;
19810;SDS011;10065;49.632;8.346;2023-08-01T07:13:02;5.27;;;2.67;;
19810;SDS011;10065;49.632;8.346;2023-08-01T07:15:30;8.23;;;2.87;;
19810;SDS011;10065;49.632;8.346;2023-08-01T07:17:59;4.93;;;2.43;;
19810;SDS011;10065;49.632;8.346;2023-08-01T07:20:28;5.87;;;2.70;;
19810;SDS011;10065;49.632;8.346;2023-08-01T07:22:56;4.03;;;2.53;;
19810;SDS011;10065;49.632;8.346;2023-08-01T07:25:23;5.83;;;2.50;;
19810;SDS011;10065;49.632;8.346;2023-08-01T07:27:51;4.67;;;2.87;;
19810;SDS011;10065;49.632;8.346;2023-08-01T07:30:19;6.40;;;2.30;;
19810;SDS011;10065;49.632;8.346;2023-08-01T07:32:46;4.00;;;2.10;;
19810;SDS011;10065;49.632;8.346;2023-08-01T07:35:15;5.53;;;1.93;;
19810;SDS011;10065;49.632;8.346;2023-08-01T07:37:44;3.90;;;1.90;;
19810;SDS011;10065;49.632;8.346;2023-08-01T07:40:12;2.80;;;1.70;;
19810;SDS011;10065;49.632;8.346;2023-08-01T07:42:40;3.43;;;1.20;;
19810;SDS011;10065;49.632;8.346;2023-08-01T07:45:08;3.10;;;1.37;;
19810;SDS011;10065;49.632;8.346;2023-08-01T07:47:36;2.80;;;1.60;;
19810;SDS011;10065;49.632;8.346;2023-08-01T07:50:04;2.70;;;1.77;;
19810;SDS011;10065;49.632;8.346;2023-08-01T07:52:33;2.97;;;1.60;;
19810;SDS011;10065;49.632;8.346;2023-08-01T07:55:03;2.20;;;0.80;;
19810;SDS011;10065;49.632;8.346;2023-08-01T07:57:32;2.50;;;0.87;;
19810;SDS011;10065;49.632;8.346;2023-08-01T08:00:06;1.17;;;0.80;;
19810;SDS011;10065;49.632;8.346;2023-08-01T08:02:41;1.63;;;0.90;;
19810;SDS011;10065;49.632;8.346;2023-08-01T08:05:10;1.77;;;0.83;;
19810;SDS011;10065;49.632;8.346;2023-08-01T08:07:39;2.53;;;0.80;;
19810;SDS011;10065;49.632;8.346;2023-08-01T08:10:16;3.10;;;1.13;;
19810;SDS011;10065;49.632;8.346;2023-08-01T08:12:49;2.97;;;1.00;;
19810;SDS011;10065;49.632;8.346;2023-08-01T08:15:17;3.33;;;0.90;;
19810;SDS011;10065;49.632;8.346;2023-08-01T08:17:49;1.67;;;0.80;;
19810;SDS011;10065;49.632;8.346;2023-08-01T08:20:19;3.17;;;1.30;;
19810;SDS011;10065;49.632;8.346;2023-08-01T08:22:47;2.10;;;0.87;;
19810;SDS011;10065;49.632;8.346;2023-08-01T08:25:16;2.90;;;1.07;;
19810;SDS011;10065;49.632;8.346;2023-08-01T08:27:45;3.30;;;0.80;;
19810;SDS011;10065;49.632;8.346;2023-08-01T08:30:14;2.37;;;0.73;;
19810;SDS011;10065;49.632;8.346;2023-08-01T08:32:42;2.03;;;0.90;;
19810;SDS011;10065;49.632;8.346;2023-08-01T08:35:10;1.60;;;0.80;;
19810;SDS011;10065;49.632;8.346;2023-08-01T08:37:38;2.23;;;1.07;;
19810;SDS011;10065;49.632;8.346;2023-08-01T08:40:08;2.43;;;0.80;;
19810;SDS011;10065;49.632;8.346;2023-08-01T08:42:38;2.67;;;1.07;;
19810;SDS011;10065;49.632;8.346;2023-08-01T08:45:08;5.10;;;0.87;;
19810;SDS011;10065;49.632;8.346;2023-08-01T08:47:38;2.50;;;0.80;;
19810;SDS011;10065;49.632;8.346;2023-08-01T08:50:12;1.70;;;0.70;;
19810;SDS011;10065;49.632;8.346;2023-08-01T08:52:40;1.20;;;0.53;;
19810;SDS011;10065;49.632;8.346;2023-08-01T08:55:08;1.50;;;0.70;;
19810;SDS011;10065;49.632;8.346;2023-08-01T08:57:37;1.30;;;0.77;;
19810;SDS011;10065;49.632;8.346;2023-08-01T09:00:09;1.40;;;0.73;;
19810;SDS011;10065;49.632;8.346;2023-08-01T09:02:38;2.77;;;1.00;;
19810;SDS011;10065;49.632;8.346;2023-08-01T09:05:07;2.70;;;1.20;;
19810;SDS011;10065;49.632;8.346;2023-08-01T09:07:36;3.07;;;1.10;;
19810;SDS011;10065;49.632;8.346;2023-08-01T09:10:09;4.40;;;1.10;;
19810;SDS011;10065;49.632;8.346;2023-08-01T09:12:38;1.93;;;1.30;;
19810;SDS011;10065;49.632;8.346;2023-08-01T09:15:07;2.30;;;1.15;;
19810;SDS011;10065;49.632;8.346;2023-08-01T09:17:48;6.13;;;1.40;;
19810;SDS011;10065;49.632;8.346;2023-08-01T09:20:17;2.83;;;0.98;;
19810;SDS011;10065;49.632;8.346;2023-08-01T09:22:46;1.92;;;0.77;;
19810;SDS011;10065;49.632;8.346;2023-08-01T09:25:17;1.67;;;0.83;;
19810;SDS011;10065;49.632;8.346;2023-08-01T09:27:46;2.83;;;0.70;;
19810;SDS011;10065;49.632;8.346;2023-08-01T09:30:14;4.30;;;0.93;;
19810;SDS011;10065;49.632;8.346;2023-08-01T09:32:50;2.58;;;0.80;;
19810;SDS011;10065;49.632;8.346;2023-08-01T09:35:19;1.48;;;0.63;;
19810;SDS011;10065;49.632;8.346;2023-08-01T09:37:48;2.17;;;0.90;;
19810;SDS011;10065;49.632;8.346;2023-08-01T09:40:17;0.98;;;0.52;;
19810;SDS011;10065;49.632;8.346;2023-08-01T09:43:02;4.53;;;0.82;;
19810;SDS011;10065;49.632;8.346;2023-08-01T09:45:30;1.20;;;0.70;;
19810;SDS011;10065;49.632;8.346;2023-08-01T09:48:01;1.52;;;0.85;;
19810;SDS011;10065;49.632;8.346;2023-08-01T09:50:29;1.73;;;0.80;;
19810;SDS011;10065;49.632;8.346;2023-08-01T09:53:08;3.35;;;1.10;;
19810;SDS011;10065;49.632;8.346;2023-08-01T09:55:39;1.92;;;0.90;;
19810;SDS011;10065;49.632;8.346;2023-08-01T09:58:12;2.67;;;1.00;;
19810;SDS011;10065;49.632;8.346;2023-08-01T10:00:43;2.75;;;1.10;;
19810;SDS011;10065;49.632;8.346;2023-08-01T10:03:12;2.15;;;1.08;;
19810;SDS011;10065;49.632;8.346;2023-08-01T10:05:40;2.33;;;0.90;;
19810;SDS011;10065;49.632;8.346;2023-08-01T10:08:12;4.75;;;1.00;;
19810;SDS011;10065;49.632;8.346;2023-08-01T10:10:41;2.58;;;1.13;;
19810;SDS011;10065;49.632;8.346;2023-08-01T10:13:19;3.05;;;0.90;;
19810;SDS011;10065;49.632;8.346;2023-08-01T10:15:50;4.22;;;0.88;;
19810;SDS011;10065;49.632;8.346;2023-08-01T10:18:19;1.40;;;0.90;;
19810;SDS011;10065;49.632;8.346;2023-08-01T10:20:49;1.88;;;0.80;;
19810;SDS011;10065;49.632;8.346;2023-08-01T10:23:21;2.80;;;1.05;;
19810;SDS011;10065;49.632;8.346;2023-08-01T10:26:03;2.38;;;1.00;;
19810;SDS011;10065;49.632;8.346;2023-08-01T10:28:38;2.25;;;0.90;;
19810;SDS011;10065;49.632;8.346;2023-08-01T10:31:17;1.83;;;0.90;;
19810;SDS011;10065;49.632;8.346;2023-08-01T10:33:46;1.80;;;1.05;;
19810;SDS011;10065;49.632;8.346;2023-08-01T10:36:18;1.65;;;0.90;;
19810;SDS011;10065;49.632;8.346;2023-08-01T10:38:48;1.75;;;0.80;;
19810;SDS011;10065;49.632;8.346;2023-08-01T10:41:26;2.63;;;0.82;;
19810;SDS011;10065;49.632;8.346;2023-08-01T10:46:45;2.13;;;1.25;;
19810;SDS011;10065;49.632;8.346;2023-08-01T10:49:21;3.17;;;1.40;;
19810;SDS011;10065;49.632;8.346;2023-08-01T10:52:03;2.85;;;0.98;;
19810;SDS011;10065;49.632;8.346;2023-08-01T10:54:42;3.47;;;1.10;;
19810;SDS011;10065;49.632;8.346;2023-08-01T10:57:15;2.28;;;0.77;;
19810;SDS011;10065;49.632;8.346;2023-08-01T10:59:46;3.83;;;1.05;;
19810;SDS011;10065;49.632;8.346;2023-08-01T11:02:19;3.05;;;1.08;;
19810;SDS011;10065;49.632;8.346;2023-08-01T11:04:55;4.10;;;1.08;;
19810;SDS011;10065;49.632;8.346;2023-08-01T11:07:27;2.97;;;0.90;;
19810;SDS011;10065;49.632;8.346;2023-08-01T11:10:02;2.17;;;0.82;;
19810;SDS011;10065;49.632;8.346;2023-08-01T11:12:55;1.23;;;0.77;;
19810;SDS011;10065;49.632;8.346;2023-08-01T11:15:25;2.72;;;1.10;;
19810;SDS011;10065;49.632;8.346;2023-08-01T11:17:54;2.42;;;1.30;;
19810;SDS011;10065;49.632;8.346;2023-08-01T11:20:24;2.17;;;0.82;;
19810;SDS011;10065;49.632;8.346;2023-08-01T11:22:53;1.58;;;0.88;;
19810;SDS011;10065;49.632;8.346;2023-08-01T11:25:31;2.45;;;1.00;;
19810;SDS011;10065;49.632;8.346;2023-08-01T11:28:05;2.38;;;1.00;;
19810;SDS011;10065;49.632;8.346;2023-08-01T11:30:36;2.17;;;1.25;;
19810;SDS011;10065;49.632;8.346;2023-08-01T11:33:15;3.15;;;1.27;;
19810;SDS011;10065;49.632;8.346;2023-08-01T11:35:43;2.05;;;1.00;;
19810;SDS011;10065;49.632;8.346;2023-08-01T11:38:11;2.33;;;1.15;;
19810;SDS011;10065;49.632;8.346;2023-08-01T11:40:40;2.58;;;1.38;;
19810;SDS011;10065;49.632;8.346;2023-08-01T11:43:09;2.53;;;1.08;;
19810;SDS011;10065;49.632;8.346;2023-08-01T11:45:49;3.72;;;1.40;;
19810;SDS011;10065;49.632;8.346;2023-08-01T11:48:20;4.85;;;1.38;;
19810;SDS011;10065;49.632;8.346;2023-08-01T11:50:55;1.83;;;0.90;;
19810;SDS011;10065;49.632;8.346;2023-08-01T11:53:29;4.10;;;1.48;;
19810;SDS011;10065;49.632;8.346;2023-08-01T11:56:07;2.78;;;1.20;;
19810;SDS011;10065;49.632;8.346;2023-08-01T11:58:50;3.22;;;1.42;;
19810;SDS011;10065;49.632;8.346;2023-08-01T12:01:27;2.60;;;1.20;;
19810;SDS011;10065;49.632;8.346;2023-08-01T12:03:56;3.65;;;1.60;;
19810;SDS011;10065;49.632;8.346;2023-08-01T12:06:34;3.55;;;1.30;;
19810;SDS011;10065;49.632;8.346;2023-08-01T12:09:07;9.02;;;1.52;;
19810;SDS011;10065;49.632;8.346;2023-08-01T12:11:37;6.00;;;1.50;;
19810;SDS011;10065;49.632;8.346;2023-08-01T12:14:09;2.63;;;1.17;;
19810;SDS011;10065;49.632;8.346;2023-08-01T12:16:42;2.88;;;1.35;;
19810;SDS011;10065;49.632;8.346;2023-08-01T12:19:16;2.35;;;1.25;;
19810;SDS011;10065;49.632;8.346;2023-08-01T12:21:46;2.92;;;1.20;;
19810;SDS011;10065;49.632;8.346;2023-08-01T12:24:15;4.38;;;1.40;;
19810;SDS011;10065;49.632;8.346;2023-08-01T12:26:46;4.50;;;1.63;;
19810;SDS011;10065;49.632;8.346;2023-08-01T12:29:14;4.32;;;1.58;;
19810;SDS011;10065;49.632;8.346;2023-08-01T12:31:43;5.15;;;1.60;;
19810;SDS011;10065;49.632;8.346;2023-08-01T12:34:35;4.00;;;1.60;;
19810;SDS011;10065;49.632;8.346;2023-08-01T12:37:04;2.03;;;1.15;;
19810;SDS011;10065;49.632;8.346;2023-08-01T12:39:38;3.15;;;1.60;;
19810;SDS011;10065;49.632;8.346;2023-08-01T12:42:06;4.50;;;1.50;;
19810;SDS011;10065;49.632;8.346;2023-08-01T12:45:08;10.90;;;1.67;;
19810;SDS011;10065;49.632;8.346;2023-08-01T12:48:02;2.65;;;1.52;;
19810;SDS011;10065;49.632;8.346;2023-08-01T12:51:08;3.38;;;1.63;;
19810;SDS011;10065;49.632;8.346;2023-08-01T12:53:37;3.80;;;1.25;;
19810;SDS011;10065;49.632;8.346;2023-08-01T12:56:23;3.83;;;1.55;;
19810;SDS011;10065;49.632;8.346;2023-08-01T12:58:51;3.78;;;1.42;;
19810;SDS011;10065;49.632;8.346;2023-08-01T13:02:05;3.40;;;1.13;;
19810;SDS011;10065;49.632;8.346;2023-08-01T13:04:37;4.88;;;1.55;;
19810;SDS011;10065;49.632;8.346;2023-08-01T13:07:08;3.50;;;1.60;;
19810;SDS011;10065;49.632;8.346;2023-08-01T13:09:36;2.97;;;1.52;;
19810;SDS011;10065;49.632;8.346;2023-08-01T13:12:08;3.95;;;1.67;;
19810;SDS011;10065;49.632;8.346;2023-08-01T13:14:38;3.05;;;1.50;;
19810;SDS011;10065;49.632;8.346;2023-08-01T13:17:06;3.78;;;1.27;;
19810;SDS011;10065;49.632;8.346;2023-08-01T13:19:34;2.42;;;1.00;;
19810;SDS011;10065;49.632;8.346;2023-08-01T13:22:03;3.55;;;1.40;;
19810;SDS011;10065;49.632;8.346;2023-08-01T13:24:34;3.35;;;1.40;;
19810;SDS011;10065;49.632;8.346;2023-08-01T13:27:05;3.83;;;1.63;;
19810;SDS011;10065;49.632;8.346;2023-08-01T13:29:35;4.85;;;1.63;;
19810;SDS011;10065;49.632;8.346;2023-08-01T13:32:06;4.97;;;1.85;;
19810;SDS011;10065;49.632;8.346;2023-08-01T13:34:35;5.13;;;1.42;;
19810;SDS011;10065;49.632;8.346;2023-08-01T13:37:05;3.22;;;1.60;;
19810;SDS011;10065;49.632;8.346;2023-08-01T13:39:35;3.70;;;1.10;;
19810;SDS011;10065;49.632;8.346;2023-08-01T13:42:04;5.65;;;1.55;;
19810;SDS011;10065;49.632;8.346;2023-08-01T13:44:33;4.53;;;1.60;;
19810;SDS011;10065;49.632;8.346;2023-08-01T13:47:01;2.55;;;1.33;;
19810;SDS011;10065;49.632;8.346;2023-08-01T13:49:30;6.03;;;1.80;;
19810;SDS011;10065;49.632;8.346;2023-08-01T13:51:58;2.85;;;1.48;;
19810;SDS011;10065;49.632;8.346;2023-08-01T13:54:32;4.05;;;2.33;;
19810;SDS011;10065;49.632;8.346;2023-08-01T13:57:02;2.88;;;1.30;;
19810;SDS011;10065;49.632;8.346;2023-08-01T13:59:33;4.80;;;1.50;;
19810;SDS011;10065;49.632;8.346;2023-08-01T14:02:03;6.15;;;2.03;;
19810;SDS011;10065;49.632;8.346;2023-08-01T14:04:35;5.68;;;1.98;;
19810;SDS011;10065;49.632;8.346;2023-08-01T14:07:08;3.05;;;1.30;;
19810;SDS011;10065;49.632;8.346;2023-08-01T14:09:37;5.82;;;1.65;;
19810;SDS011;10065;49.632;8.346;2023-08-01T14:12:06;2.58;;;1.40;;
19810;SDS011;10065;49.632;8.346;2023-08-01T14:14:38;5.55;;;1.55;;
19810;SDS011;10065;49.632;8.346;2023-08-01T14:17:23;5.00;;;1.75;;
19810;SDS011;10065;49.632;8.346;2023-08-01T14:20:00;4.68;;;1.67;;
19810;SDS011;10065;49.632;8.346;2023-08-01T14:22:42;3.58;;;1.42;;
19810;SDS011;10065;49.632;8.346;2023-08-01T14:25:12;3.95;;;1.50;;
19810;SDS011;10065;49.632;8.346;2023-08-01T14:27:54;2.72;;;1.48;;
19810;SDS011;10065;49.632;8.346;2023-08-01T14:30:32;5.45;;;1.35;;
19810;SDS011;10065;49.632;8.346;2023-08-01T14:33:15;3.55;;;1.55;;
19810;SDS011;10065;49.632;8.346;2023-08-01T14:35:43;2.28;;;1.42;;
19810;SDS011;10065;49.632;8.346;2023-08-01T14:38:11;3.65;;;1.58;;
19810;SDS011;10065;49.632;8.346;2023-08-01T14:41:15;5.20;;;1.88;;
19810;SDS011;10065;49.632;8.346;2023-08-01T14:44:10;4.55;;;1.52;;
19810;SDS011;10065;49.632;8.346;2023-08-01T14:46:55;4.85;;;1.52;;
19810;SDS011;10065;49.632;8.346;2023-08-01T14:52:50;4.53;;;1.98;;
19810;SDS011;10065;49.632;8.346;2023-08-01T14:58:47;5.80;;;1.90;;
19810;SDS011;10065;49.632;8.346;2023-08-01T15:01:38;6.20;;;1.67;;
19810;SDS011;10065;49.632;8.346;2023-08-01T15:04:10;2.50;;;1.48;;
19810;SDS011;10065;49.632;8.346;2023-08-01T15:06:41;8.30;;;1.98;;
19810;SDS011;10065;49.632;8.346;2023-08-01T15:09:09;5.20;;;1.73;;
19810;SDS011;10065;49.632;8.346;2023-08-01T15:11:42;4.88;;;1.63;;
19810;SDS011;10065;49.632;8.346;2023-08-01T15:14:15;3.03;;;1.23;;
19810;SDS011;10065;49.632;8.346;2023-08-01T15:16:43;3.30;;;1.17;;
19810;SDS011;10065;49.632;8.346;2023-08-01T15:30:12;3.88;;;1.38;;
19810;SDS011;10065;49.632;8.346;2023-08-01T15:32:43;6.40;;;1.40;;
19810;SDS011;10065;49.632;8.346;2023-08-01T15:35:55;3.22;;;1.55;;
19810;SDS011;10065;49.632;8.346;2023-08-01T15:38:37;5.43;;;1.80;;
19810;SDS011;10065;49.632;8.346;2023-08-01T15:41:06;3.38;;;1.48;;
19810;SDS011;10065;49.632;8.346;2023-08-01T15:47:14;4.22;;;1.45;;
19810;SDS011;10065;49.632;8.346;2023-08-01T15:49:48;4.38;;;1.75;;
19810;SDS011;10065;49.632;8.346;2023-08-01T15:52:25;4.50;;;1.50;;
19810;SDS011;10065;49.632;8.346;2023-08-01T15:57:55;3.13;;;1.42;;
19810;SDS011;10065;49.632;8.346;2023-08-01T16:00:26;4.03;;;1.30;;
19810;SDS011;10065;49.632;8.346;2023-08-01T16:03:01;4.88;;;1.35;;
19810;SDS011;10065;49.632;8.346;2023-08-01T16:05:40;4.45;;;1.50;;
19810;SDS011;10065;49.632;8.346;2023-08-01T16:08:21;2.67;;;1.10;;
19810;SDS011;10065;49.632;8.346;2023-08-01T16:10:51;2.78;;;1.00;;
19810;SDS011;10065;49.632;8.346;2023-08-01T16:13:22;4.93;;;1.80;;
19810;SDS011;10065;49.632;8.346;2023-08-01T16:15:53;3.80;;;1.30;;
19810;SDS011;10065;49.632;8.346;2023-08-01T16:18:24;6.15;;;1.50;;
19810;SDS011;10065;49.632;8.346;2023-08-01T16:20:59;4.55;;;1.42;;
19810;SDS011;10065;49.632;8.346;2023-08-01T16:23:48;4.32;;;2.10;;
19810;SDS011;10065;49.632;8.346;2023-08-01T16:26:24;3.90;;;1.27;;
19810;SDS011;10065;49.632;8.346;2023-08-01T16:28:58;3.17;;;1.05;;
19810;SDS011;10065;49.632;8.346;2023-08-01T16:31:32;3.10;;;1.15;;
19810;SDS011;10065;49.632;8.346;2023-08-01T16:34:04;6.50;;;1.00;;
19810;SDS011;10065;49.632;8.346;2023-08-01T16:36:36;4.22;;;1.10;;
19810;SDS011;10065;49.632;8.346;2023-08-01T16:39:12;5.10;;;1.15;;
19810;SDS011;10065;49.632;8.346;2023-08-01T16:41:43;4.07;;;0.98;;
19810;SDS011;10065;49.632;8.346;2023-08-01T16:44:14;4.30;;;1.27;;
19810;SDS011;10065;49.632;8.346;2023-08-01T16:46:42;3.60;;;1.27;;
19810;SDS011;10065;49.632;8.346;2023-08-01T16:49:11;5.30;;;1.90;;
19810;SDS011;10065;49.632;8.346;2023-08-01T16:51:49;4.60;;;1.52;;
19810;SDS011;10065;49.632;8.346;2023-08-01T16:54:17;4.20;;;1.48;;
19810;SDS011;10065;49.632;8.346;2023-08-01T16:56:46;5.45;;;1.60;;
19810;SDS011;10065;49.632;8.346;2023-08-01T17:02:15;3.63;;;1.30;;
19810;SDS011;10065;49.632;8.346;2023-08-01T17:04:48;9.32;;;1.77;;
19810;SDS011;10065;49.632;8.346;2023-08-01T17:07:27;2.63;;;1.20;;
19810;SDS011;10065;49.632;8.346;2023-08-01T17:10:17;3.25;;;1.52;;
19810;SDS011;10065;49.632;8.346;2023-08-01T17:12:45;4.22;;;1.40;;
19810;SDS011;10065;49.632;8.346;2023-08-01T17:15:17;2.63;;;1.30;;
19810;SDS011;10065;49.632;8.346;2023-08-01T17:17:51;2.40;;;1.15;;
19810;SDS011;10065;49.632;8.346;2023-08-01T17:20:49;5.18;;;1.10;;
19810;SDS011;10065;49.632;8.346;2023-08-01T17:23:31;3.60;;;1.50;;
19810;SDS011;10065;49.632;8.346;2023-08-01T17:26:00;6.25;;;1.40;;
19810;SDS011;10065;49.632;8.346;2023-08-01T17:28:28;4.38;;;1.30;;
19810;SDS011;10065;49.632;8.346;2023-08-01T17:31:02;7.15;;;1.20;;
19810;SDS011;10065;49.632;8.346;2023-08-01T17:33:30;4.90;;;1.17;;
19810;SDS011;10065;49.632;8.346;2023-08-01T17:36:00;4.07;;;1.10;;
19810;SDS011;10065;49.632;8.346;2023-08-01T17:38:32;5.87;;;1.73;;
19810;SDS011;10065;49.632;8.346;2023-08-01T17:41:15;5.23;;;1.67;;
19810;SDS011;10065;49.632;8.346;2023-08-01T17:43:45;3.33;;;1.10;;
19810;SDS011;10065;49.632;8.346;2023-08-01T17:46:23;6.77;;;1.50;;
19810;SDS011;10065;49.632;8.346;2023-08-01T17:48:55;4.93;;;1.37;;
19810;SDS011;10065;49.632;8.346;2023-08-01T17:51:32;2.80;;;1.20;;
19810;SDS011;10065;49.632;8.346;2023-08-01T17:54:14;2.60;;;1.10;;
19810;SDS011;10065;49.632;8.346;2023-08-01T17:56:49;6.10;;;1.33;;
19810;SDS011;10065;49.632;8.346;2023-08-01T17:59:32;2.93;;;0.97;;
19810;SDS011;10065;49.632;8.346;2023-08-01T18:02:31;5.77;;;1.53;;
19810;SDS011;10065;49.632;8.346;2023-08-01T18:05:19;5.87;;;1.70;;
19810;SDS011;10065;49.632;8.346;2023-08-01T18:14:44;4.27;;;1.40;;
19810;SDS011;10065;49.632;8.346;2023-08-01T18:25:25;5.10;;;1.40;;
19810;SDS011;10065;49.632;8.346;2023-08-01T18:33:12;4.23;;;1.70;;
19810;SDS011;10065;49.632;8.346;2023-08-01T18:36:40;4.00;;;1.50;;
19810;SDS011;10065;49.632;8.346;2023-08-01T18:39:32;4.87;;;1.87;;
19810;SDS011;10065;49.632;8.346;2023-08-01T18:42:23;5.50;;;1.77;;
19810;SDS011;10065;49.632;8.346;2023-08-01T18:45:57;3.63;;;1.60;;
19810;SDS011;10065;49.632;8.346;2023-08-01T18:48:38;4.37;;;1.70;;
19810;SDS011;10065;49.632;8.346;2023-08-01T18:51:45;6.40;;;2.23;;
19810;SDS011;10065;49.632;8.346;2023-08-01T18:55:09;5.83;;;1.97;;
19810;SDS011;10065;49.632;8.346;2023-08-01T19:06:44;5.63;;;2.10;;
19810;SDS011;10065;49.632;8.346;2023-08-01T19:14:08;4.90;;;1.93;;
19810;SDS011;10065;49.632;8.346;2023-08-01T19:17:13;6.23;;;2.30;;
19810;SDS011;10065;49.632;8.346;2023-08-01T19:19:58;8.77;;;2.83;;
19810;SDS011;10065;49.632;8.346;2023-08-01T19:22:37;7.63;;;2.50;;
19810;SDS011;10065;49.632;8.346;2023-08-01T19:25:16;5.10;;;2.20;;
19810;SDS011;10065;49.632;8.346;2023-08-01T19:27:48;5.97;;;2.40;;
19810;SDS011;10065;49.632;8.346;2023-08-01T19:30:41;6.10;;;2.23;;
19810;SDS011;10065;49.632;8.346;2023-08-01T19:33:28;6.67;;;2.27;;
19810;SDS011;10065;49.632;8.346;2023-08-01T19:36:02;7.17;;;2.60;;
19810;SDS011;10065;49.632;8.346;2023-08-01T19:39:19;6.57;;;2.73;;
19810;SDS011;10065;49.632;8.346;2023-08-01T19:41:54;5.43;;;2.40;;
19810;SDS011;10065;49.632;8.346;2023-08-01T19:44:37;10.93;;;3.30;;
19810;SDS011;10065;49.632;8.346;2023-08-01T19:47:13;6.63;;;2.80;;
